Logo AVAMET
Benvolgut visitant, si us plau, ingressa Recuperar contrasenya
AVAMET paisatges

Xàbia Cap de la Nau

Dades diàries. Acumulats / Últims 30 dies disponibles

Data Temperatura (°C) Humitat rel. (%) Pressió rel. (hPa) Vent (km/h) Precipitació
Mínima Mitjana Màxima Amplitud
tèrmica
Mínima Mitjana Màxima Mínima Mitjana Màxima Predom. Mitjana Ràfega
màxima
Total
(mm)
Índex-n
Mínima Mitjana Màxima Mínima Mitjana Màxima n
0 a 1
P0 max
mm 5'
Dades mensuals acumulades fins l'últim dia disponible
05/2020 12,6 17,0 19,5 19,4 18,9 22,6 26,4 13,8 39 75 97 1.002 1.016 1.027   9,5 48,1 11,0
Dades anuals acumulades fins l'últim dia disponible
2020 7,8 12,7 19,5 15,0 11,7 17,9 26,4 18,6 26 76 99 1.002 1.019 1.033   8,7 92,5 173,3
Últims 30 dies disponibles
29-05-2020 16,6     20,0     23,8 7,2 46 68 90 1.013 1.016 1.020 SSE 5,9 25,9 0,0
28-05-2020 18,6     20,1     22,8 4,2 72 82 92 1.019 1.022 1.025 NE 9,3 31,4 0,0
27-05-2020 17,6     19,8     23,0 5,4 71 81 91 1.022 1.023 1.025 N 10,6 40,7 0,0
26-05-2020 17,9     20,1     22,7 4,8 72 81 90 1.022 1.024 1.025 NNE 8,8 33,3 0,0
25-05-2020 17,2     19,7     22,8 5,6 67 80 93 1.022 1.024 1.026 NE 5,6 25,9 0,0
24-05-2020 18,4     20,0     22,1 3,7 80 89 97 1.024 1.025 1.027 NNE 7,8 29,6 0,0
23-05-2020 19,5     21,8     24,1 4,6 42 67 91 1.022 1.023 1.025 SSO 7,9 27,8 0,0
22-05-2020 18,4     21,1     25,7 7,3 39 68 97 1.019 1.021 1.024 SO 10,7 29,6 0,0
21-05-2020 18,2     20,4     24,0 5,8 64 81 97 1.016 1.018 1.020 OSO 9,7 29,6 0,0
20-05-2020 19,3     21,5     24,8 5,5 55 74 92 1.013 1.014 1.016 O 7,2 22,2 0,0
19-05-2020 17,7     19,5     22,6 4,9 59 78 97 1.014 1.017 1.019 OSO 10,1 29,6 0,0
18-05-2020 16,3     18,1     21,0 4,7 64 80 96 1.018 1.019 1.021 SO 9,7 31,4 0,0
17-05-2020 15,4     17,6     20,4 5,0 67 81 94 1.017 1.019 1.021 SO 5,8 29,6 2,1
16-05-2020 15,3     16,9     18,9 3,6 76 85 94 1.012 1.015 1.018 N 10,6 35,1 0,0
15-05-2020 15,6     17,4     19,9 4,3 57 75 92 1.009 1.011 1.014 N 8,1 27,8 0,0
14-05-2020 12,6     16,1     19,8 7,2 48 73 97 1.002 1.005 1.009 OSO 13,2 46,3 7,1 0,34 0,80
13-05-2020 15,2     17,6     20,4 5,2 50 68 86 1.004 1.005 1.007 O 12,2 33,3 0,0
12-05-2020 16,4     19,1     21,5 5,1 48 71 94 1.004 1.007 1.011 N 8,7 31,4 0,0
11-05-2020 17,5     19,5     22,0 4,5 49 63 77 1.005 1.008 1.010 OSO 14,7 48,1 0,0
10-05-2020 13,7     18,1     20,9 7,2 42 69 96 1.004 1.005 1.008 OSO 11,6 42,5 1,8
09-05-2020 16,8     18,6     21,4 4,6 73 85 96 1.007 1.011 1.014 OSO 9,9 31,4 0,0
08-05-2020 17,0     18,5     20,5 3,5 85 91 97 1.012 1.015 1.016 NNE 11,7 38,9 0,0
07-05-2020 16,7     19,2     23,0 6,3 57 77 97 1.015 1.017 1.018 N 9,3 33,3 0,0
06-05-2020 17,2     19,4     22,4 5,2 63 79 95 1.013 1.015 1.017 NNE 7,9 31,4 0,0
05-05-2020 16,6     19,7     24,3 7,7 57 76 94 1.011 1.013 1.014 NO 5,9 22,2 0,0
04-05-2020 16,4     19,2     23,3 6,9 50 74 97 1.012 1.014 1.016 NNE 5,7 18,5 0,0
03-05-2020 17,7     21,9     25,2 7,5 48 71 93 1.016 NNE 6,8 24,1 0,0
02-05-2020 19,4     22,3     26,4 7,0 43 63 83 1.017 O 14,9 40,7 0,0
01-05-2020 17,8     20,8     24,9 7,1 47 61 75 1.016 O 14,5 46,3 0,0
30-04-2020 16,6     19,5     21,7 5,1 47 76 84 1.015 OSO 10,9 38,9 0,0
Últims 13 mesos disponibles
04/2020 10,3 13,0 16,6 14,9 14,4 17,8 22,2 11,9 0 47 76 1.005 1.015 1.025 3,9 46,3 46,4
03/2020 7,8 11,4 16,8 13,8 11,8 17,1 23,3 15,5 1.007 1.015 1.024 88,8 36,8
02/2020 9,1 12,2 15,5 14,7 12,9 17,8 25,3 16,2 50 77 97 1.022 1.025 1.028 SO 7,6 42,5 2,1
01/2020 7,8 10,2 15,1 12,2 11,7 14,8 20,4 12,6 59 78 93 1.014 1.024 1.031 OSO 9,0 92,5 76,2
12/2019 9,2 12,2 16,1 14,2 12,5 16,7 22,3 13,1 50 74 90 1.004 1.018 1.032 SO 10,6 90,7 104,2
11/2019 7,7 12,9 21,1 15,3 13,2 18,2 25,3 17,6 45 61 85 998 1.010 1.018 ONO 13,1 70,3 16,1
10/2019 11,9 17,8 21,8 20,1 16,3 22,8 26,9 15,0 43 73 90 1.008 1.015 1.021 SO 8,4 62,9 80,2
09/2019 13,3 21,0 23,8 23,1 22,2 24,9 27,9 14,6 57 83 98 1.013 1.020 1.026 N 11,1 72,2 180,7
08/2019 19,1 22,9 25,0 25,0 25,9 27,4 30,6 11,5 69 81 94 1.014 1.018 1.022 SSO 10,8 40,7 16,0
07/2019 21,2 22,9 25,0 25,1 26,4 27,9 31,5 10,3 59 77 89 1.005 1.015 1.023 N 9,3 51,8 2,2
06/2019 15,6 18,6 24,7 20,9 20,1 23,6 31,3 15,7 49 77 93 1.009 1.015 1.021 N 12,3 46,3 0,0
05/2019 10,6 15,0 17,8 17,3 16,8 19,9 24,6 14,0 60 77 92 1.003 1.015 1.024 SSO 10,9 44,4 12,3
04/2019 8,8 12,2 14,0 14,5 13,6 17,3 23,8 15,0 46 73 93 997 1.009 1.022 SSO 13,6 66,6 326,8
Tots els anys disponibles
2019 5,0 15,6 25,0 17,8 9,7 20,5 31,5 26,5 32 72 98 991 1.016 1.032 SO 11,0 90,7 768,9
2018 3,9 15,7 26,3 17,8 7,7 20,4 33,6 29,7 24 69 96 989 1.013 1.032 SO 11,3 83,8 702,1
Temperatura (°C)
Humitat relativa (%)
Velocitat del vent i ràfega màxima (km/h)
Direcció del vent (°)
Pressió (hPa)
Precipitació (mm)
Nota sobre les dades: s'avisa a l'usuari de la provisionalitat i no oficialitat d'aquestes dades
Logo AVAMET blanc
Web allotjada a Sollutia
Llicència de Creative CommonsLa web d'AVAMET i els seus continguts estan subjectes a una llicència de
Reconeixement - No Comercial - Compartir igual
Últimes estacions:  la Vall d'Alba - Centre (Ajuntament soci), Chera (Ajuntament soci) - - -